Time;durP1;ratioP1;P1;durP2;ratioP2;P2;SDS_P1;SDS_P2;PMS_P1;PMS_P2;Temp;Humidity;BMP_temperature;BMP_pressure;BME280_temperature;BME280_humidity;BME280_pressure;Samples;Min_cycle;Max_cycle;Signal;HPM_P1;HPM_P2
2021/06/08 00:00:57;;;;;;;13.48;12.00;;;18.20;1.00;;;;;;5030692;28;20025;-84
2021/06/08 00:03:23;;;;;;;15.30;12.98;;;18.60;1.00;;;;;;5032800;28;20022;-83
2021/06/08 00:05:48;;;;;;;14.88;12.65;;;18.10;1.00;;;;;;5032264;28;20417;-82
2021/06/08 00:08:14;;;;;;;16.00;12.82;;;18.50;1.00;;;;;;5032427;28;20044;-82
2021/06/08 00:10:40;;;;;;;15.85;13.52;;;18.10;1.00;;;;;;5033030;28;20497;-83
2021/06/08 00:13:05;;;;;;;16.42;12.95;;;18.00;1.00;;;;;;5032667;28;20385;-82
2021/06/08 00:15:31;;;;;;;13.90;12.35;;;18.00;1.00;;;;;;5032087;28;20109;-82
2021/06/08 00:17:57;;;;;;;15.57;12.15;;;18.50;1.00;;;;;;5032017;28;20033;-83
2021/06/08 00:20:23;;;;;;;13.75;12.13;;;18.00;1.00;;;;;;5032575;28;20501;-82
2021/06/08 00:22:48;;;;;;;15.77;11.75;;;17.90;1.00;;;;;;5031656;28;20409;-83
2021/06/08 00:25:15;;;;;;;15.75;11.98;;;17.90;1.00;;;;;;5032475;28;20484;-83
2021/06/08 00:27:41;;;;;;;14.68;12.60;;;17.80;1.00;;;;;;5031680;28;20029;-82
2021/06/08 00:30:07;;;;;;;15.13;13.43;;;17.70;1.00;;;;;;5031815;28;20029;-83
2021/06/08 00:32:33;;;;;;;16.10;11.73;;;17.60;1.00;;;;;;5031915;28;20052;-82
2021/06/08 00:34:59;;;;;;;15.70;13.00;;;17.50;1.00;;;;;;5031917;28;20030;-83
2021/06/08 00:37:24;;;;;;;14.15;12.32;;;17.50;1.00;;;;;;5032265;28;20629;-82
2021/06/08 00:39:52;;;;;;;14.88;13.15;;;17.40;1.00;;;;;;5032077;28;20017;-82
2021/06/08 00:42:27;;;;;;;14.07;12.32;;;17.40;1.00;;;;;;5031698;28;20022;-83
2021/06/08 00:44:52;;;;;;;15.20;12.77;;;17.30;1.00;;;;;;5031319;28;20022;-83
2021/06/08 00:47:18;;;;;;;14.55;12.25;;;17.20;1.00;;;;;;5014286;28;20568;-82
2021/06/08 00:49:43;;;;;;;16.27;13.38;;;17.30;1.00;;;;;;5031699;28;20061;-82
2021/06/08 00:52:09;;;;;;;16.98;12.60;;;17.30;1.00;;;;;;5031661;28;20386;-82
2021/06/08 00:54:35;;;;;;;15.32;12.98;;;17.10;1.00;;;;;;5031547;28;20507;-82
2021/06/08 00:57:00;;;;;;;17.00;13.43;;;17.10;1.00;;;;;;5031366;28;20084;-82
2021/06/08 00:59:26;;;;;;;15.60;13.25;;;17.10;1.00;;;;;;5031846;28;20056;-83
2021/06/08 01:01:51;;;;;;;15.50;13.75;;;17.10;1.00;;;;;;5031684;28;20044;-83
2021/06/08 01:04:17;;;;;;;15.55;12.57;;;17.00;1.00;;;;;;5031747;28;20028;-82
2021/06/08 01:06:47;;;;;;;16.42;12.65;;;17.00;1.00;;;;;;5030672;28;20489;-82
2021/06/08 01:09:13;;;;;;;19.55;13.25;;;17.00;1.00;;;;;;5031008;28;20576;-82
2021/06/08 01:11:39;;;;;;;16.83;13.15;;;17.00;1.00;;;;;;5031184;28;20121;-82
2021/06/08 01:14:05;;;;;;;15.95;13.23;;;17.00;1.00;;;;;;5013836;28;20025;-82
2021/06/08 01:16:32;;;;;;;16.33;12.85;;;16.90;1.00;;;;;;5028152;28;20048;-83
2021/06/08 01:18:59;;;;;;;14.88;13.07;;;16.90;1.00;;;;;;5030798;28;20053;-83
2021/06/08 01:21:27;;;;;;;16.15;13.50;;;16.90;1.00;;;;;;5030806;28;20044;-82
2021/06/08 01:23:53;;;;;;;15.43;13.70;;;16.90;1.00;;;;;;5030905;28;20033;-83
2021/06/08 01:26:21;;;;;;;15.40;13.70;;;16.90;1.00;;;;;;5030930;28;20094;-83
2021/06/08 01:28:47;;;;;;;15.25;13.55;;;16.90;1.00;;;;;;5031362;28;20132;-82
2021/06/08 01:31:16;;;;;;;16.15;13.65;;;16.90;1.00;;;;;;5013720;28;20183;-82
2021/06/08 01:33:44;;;;;;;16.80;13.75;;;16.90;1.00;;;;;;5030846;28;20033;-83
2021/06/08 01:36:13;;;;;;;15.85;13.63;;;16.90;1.00;;;;;;5030625;28;20029;-82
2021/06/08 01:38:44;;;;;;;16.08;13.30;;;16.90;1.00;;;;;;5030731;28;20025;-83
2021/06/08 01:41:13;;;;;;;19.95;13.32;;;16.80;1.00;;;;;;5030979;28;20036;-82
2021/06/08 01:43:42;;;;;;;17.55;13.63;;;16.80;1.00;;;;;;5031121;28;20040;-83
2021/06/08 01:46:09;;;;;;;17.90;14.73;;;16.80;1.00;;;;;;5030181;28;20512;-82
2021/06/08 01:48:35;;;;;;;14.82;13.18;;;16.80;1.00;;;;;;5029758;28;20126;-83
2021/06/08 01:51:13;;;;;;;17.80;14.32;;;16.70;1.00;;;;;;5031279;28;20512;-82
2021/06/08 01:54:06;;;;;;;19.13;14.20;;;16.70;1.00;;;;;;5030532;28;20439;-82
2021/06/08 01:56:34;;;;;;;18.10;14.27;;;16.60;1.00;;;;;;5030758;28;20025;-83
2021/06/08 01:59:16;;;;;;;16.52;13.93;;;16.60;1.00;;;;;;5030840;28;20021;-82
2021/06/08 02:01:56;;;;;;;17.85;14.00;;;16.90;1.00;;;;;;5027907;28;20025;-82
2021/06/08 02:04:25;;;;;;;16.75;14.27;;;16.60;1.00;;;;;;5030275;28;20497;-82
2021/06/08 02:07:21;;;;;;;16.63;14.82;;;16.60;1.00;;;;;;5030882;28;20501;-82
2021/06/08 02:09:55;;;;;;;17.60;14.32;;;16.60;1.00;;;;;;5030726;28;20574;-83
2021/06/08 02:12:21;;;;;;;17.00;14.13;;;16.60;1.00;;;;;;5030925;28;20025;-82
2021/06/08 02:15:10;;;;;;;18.67;14.07;;;16.50;1.00;;;;;;5030506;28;20029;-82
2021/06/08 02:17:45;;;;;;;18.48;14.75;;;16.60;1.00;;;;;;5030058;28;20029;-82
2021/06/08 02:20:14;;;;;;;18.73;14.23;;;16.60;1.00;;;;;;5016179;28;20103;-82
2021/06/08 02:22:45;;;;;;;17.05;13.85;;;16.50;1.00;;;;;;5030624;28;20060;-82
2021/06/08 02:25:13;;;;;;;22.08;14.60;;;16.50;1.00;;;;;;5030367;28;20029;-83
2021/06/08 02:27:40;;;;;;;16.83;13.95;;;16.50;1.00;;;;;;5030323;28;20113;-82
2021/06/08 02:30:06;;;;;;;16.17;14.10;;;16.50;1.00;;;;;;5030869;28;20018;-82
2021/06/08 02:32:33;;;;;;;17.00;14.18;;;16.50;1.00;;;;;;5030341;28;20036;-82
2021/06/08 02:35:02;;;;;;;16.58;14.18;;;16.50;1.00;;;;;;5030305;28;20025;-82
2021/06/08 02:37:29;;;;;;;16.92;13.82;;;16.50;1.00;;;;;;5031156;28;20030;-82
2021/06/08 02:39:56;;;;;;;19.40;15.23;;;16.50;1.00;;;;;;5030752;28;20017;-82
2021/06/08 02:42:23;;;;;;;18.77;14.70;;;16.50;1.00;;;;;;5030451;28;20021;-83
2021/06/08 02:44:50;;;;;;;15.60;13.38;;;16.40;1.00;;;;;;5030183;28;20032;-82
2021/06/08 02:47:20;;;;;;;19.17;14.13;;;16.40;1.00;;;;;;5029922;28;20025;-83
2021/06/08 02:49:49;;;;;;;19.95;14.23;;;16.50;1.00;;;;;;5030692;28;20195;-82
2021/06/08 02:52:16;;;;;;;16.92;13.55;;;16.60;1.00;;;;;;5034945;28;20029;-83
2021/06/08 02:54:43;;;;;;;15.90;13.23;;;16.70;1.00;;;;;;5034169;28;20025;-82
2021/06/08 02:57:10;;;;;;;16.70;13.68;;;16.60;1.00;;;;;;5033784;28;20494;-83
2021/06/08 02:59:37;;;;;;;15.70;13.77;;;16.70;1.00;;;;;;5034155;28;20017;-82
2021/06/08 03:02:09;;;;;;;15.30;13.13;;;16.60;1.00;;;;;;4999680;28;20033;-82
2021/06/08 03:04:52;;;;;;;15.43;12.73;;;16.60;1.00;;;;;;5030732;28;20363;-82
2021/06/08 03:07:21;;;;;;;15.35;12.52;;;16.90;1.00;;;;;;5032312;28;20044;-82
2021/06/08 03:09:58;;;;;;;14.07;12.38;;;16.50;1.00;;;;;;5033652;28;20040;-82
2021/06/08 03:12:30;;;;;;;15.05;13.18;;;16.80;1.00;;;;;;5033807;28;20450;-82
2021/06/08 03:14:57;;;;;;;14.48;12.45;;;16.40;1.00;;;;;;5033578;28;20461;-82
2021/06/08 03:17:26;;;;;;;16.27;13.10;;;16.40;1.00;;;;;;5033398;28;20021;-82
2021/06/08 03:19:55;;;;;;;17.83;13.43;;;16.30;1.00;;;;;;5033175;28;20018;-82
2021/06/08 03:22:22;;;;;;;16.60;12.60;;;16.30;1.00;;;;;;5033666;28;20394;-82
2021/06/08 03:24:51;;;;;;;14.68;13.18;;;16.20;1.00;;;;;;5033303;28;20112;-82
2021/06/08 03:27:19;;;;;;;15.00;13.40;;;16.20;1.00;;;;;;5033495;28;20029;-82
2021/06/08 03:29:45;;;;;;;16.23;13.93;;;16.20;1.00;;;;;;5032670;28;20037;-82
2021/06/08 03:32:12;;;;;;;16.00;12.98;;;16.20;1.00;;;;;;5015368;28;20025;-82
2021/06/08 03:34:39;;;;;;;16.98;13.32;;;16.10;1.00;;;;;;5033315;28;20034;-82
2021/06/08 03:37:06;;;;;;;15.98;13.20;;;16.20;1.00;;;;;;5033406;28;20021;-82
2021/06/08 03:39:33;;;;;;;14.43;12.80;;;16.20;1.00;;;;;;5033582;28;20025;-82
2021/06/08 03:42:01;;;;;;;14.02;12.60;;;16.40;1.00;;;;;;5032883;28;20052;-82
2021/06/08 03:44:27;;;;;;;16.42;12.85;;;16.40;1.00;;;;;;5032544;28;20034;-82
2021/06/08 03:46:54;;;;;;;16.55;13.40;;;16.40;1.00;;;;;;5032864;28;20029;-82
2021/06/08 03:49:22;;;;;;;15.57;12.52;;;16.50;1.00;;;;;;5033316;28;20033;-82
2021/06/08 03:51:49;;;;;;;15.85;13.82;;;16.50;1.00;;;;;;5032882;28;20033;-82
2021/06/08 03:54:15;;;;;;;16.73;13.13;;;16.50;1.00;;;;;;5032531;28;20565;-82
2021/06/08 03:56:44;;;;;;;16.30;12.23;;;16.40;1.00;;;;;;5033466;28;20024;-82
2021/06/08 03:59:11;;;;;;;13.80;12.25;;;16.50;1.00;;;;;;5031939;28;20037;-82
2021/06/08 04:01:37;;;;;;;14.85;12.27;;;16.70;1.00;;;;;;5032771;28;20026;-82
2021/06/08 04:04:05;;;;;;;17.17;13.18;;;16.60;1.00;;;;;;5032748;28;20482;-82
2021/06/08 04:06:32;;;;;;;14.05;12.38;;;16.70;1.00;;;;;;5031303;28;20033;-82
2021/06/08 04:09:01;;;;;;;14.68;13.00;;;16.70;1.00;;;;;;5032349;28;20033;-82
2021/06/08 04:11:27;;;;;;;16.05;13.07;;;16.70;1.00;;;;;;5032792;28;20025;-82
2021/06/08 04:13:56;;;;;;;15.07;13.48;;;16.60;1.00;;;;;;5014279;28;20025;-83
2021/06/08 04:16:22;;;;;;;14.75;13.00;;;16.70;1.00;;;;;;5032826;28;20043;-82
2021/06/08 04:18:48;;;;;;;14.18;12.60;;;16.80;1.00;;;;;;5015075;28;20029;-82
2021/06/08 04:21:14;;;;;;;16.05;13.63;;;16.90;1.00;;;;;;5014072;28;20510;-82
2021/06/08 04:23:40;;;;;;;15.25;13.65;;;17.00;1.00;;;;;;5014819;28;20183;-82
2021/06/08 04:26:05;;;;;;;17.45;13.23;;;17.00;1.00;;;;;;5032194;28;20026;-82
2021/06/08 04:28:31;;;;;;;19.70;14.30;;;17.00;1.00;;;;;;5032567;28;20033;-82
2021/06/08 04:30:56;;;;;;;15.52;13.18;;;17.30;1.00;;;;;;5031961;28;20044;-82
2021/06/08 04:33:25;;;;;;;15.35;13.25;;;17.00;1.00;;;;;;5032255;28;20026;-82
2021/06/08 04:35:51;;;;;;;14.93;13.32;;;17.10;1.00;;;;;;5032019;28;20025;-82
2021/06/08 04:38:18;;;;;;;15.60;13.90;;;17.20;1.00;;;;;;5031858;28;20029;-82
2021/06/08 04:40:45;;;;;;;14.77;13.15;;;17.20;1.00;;;;;;5014366;28;20032;-82
2021/06/08 04:43:11;;;;;;;16.33;13.13;;;17.20;1.00;;;;;;5032220;28;20034;-82
2021/06/08 04:45:37;;;;;;;18.90;13.65;;;17.10;1.00;;;;;;5009984;28;20052;-82
2021/06/08 04:48:04;;;;;;;16.63;14.50;;;17.10;1.00;;;;;;5031137;28;20041;-82
2021/06/08 04:50:29;;;;;;;16.92;14.82;;;17.20;1.00;;;;;;5031177;28;20018;-82
2021/06/08 04:52:58;;;;;;;17.08;15.25;;;17.20;1.00;;;;;;5031518;28;20041;-82
2021/06/08 04:55:25;;;;;;;19.63;15.90;;;17.00;1.00;;;;;;5031357;28;20064;-83
2021/06/08 04:57:54;;;;;;;18.02;16.13;;;17.00;1.00;;;;;;5031408;28;20464;-83
2021/06/08 05:00:45;;;;;;;21.38;16.95;;;17.00;1.00;;;;;;5031546;28;20025;-83
2021/06/08 05:03:15;;;;;;;17.80;15.23;;;17.00;1.00;;;;;;5021538;28;20048;-83
2021/06/08 05:05:45;;;;;;;18.27;16.33;;;17.10;1.00;;;;;;5031616;28;20030;-83
2021/06/08 05:08:15;;;;;;;17.70;15.82;;;17.10;1.00;;;;;;5031238;28;20410;-84
2021/06/08 05:11:03;;;;;;;19.20;15.88;;;17.10;1.00;;;;;;5031435;28;20029;-82
2021/06/08 05:13:30;;;;;;;18.98;15.75;;;17.00;1.00;;;;;;5031501;28;20064;-83
2021/06/08 05:15:57;;;;;;;19.10;15.13;;;17.10;1.00;;;;;;5031155;28;20022;-82
2021/06/08 05:18:25;;;;;;;18.55;16.20;;;17.10;1.00;;;;;;5031381;28;20052;-82
2021/06/08 05:20:52;;;;;;;17.85;16.00;;;17.10;1.00;;;;;;5030485;28;20367;-82
2021/06/08 05:23:18;;;;;;;17.77;15.88;;;17.10;1.00;;;;;;5032085;28;20092;-82
2021/06/08 05:25:45;;;;;;;18.27;16.10;;;17.30;1.00;;;;;;5030992;28;20029;-84
2021/06/08 05:28:14;;;;;;;18.85;16.85;;;17.20;1.00;;;;;;5031371;28;20541;-84
2021/06/08 05:30:41;;;;;;;19.17;15.82;;;17.10;1.00;;;;;;5030825;28;20037;-85
2021/06/08 05:33:08;;;;;;;18.75;16.30;;;17.30;1.00;;;;;;5013201;28;20478;-82
2021/06/08 05:35:34;;;;;;;19.73;16.13;;;17.40;1.00;;;;;;5031340;28;20126;-83
2021/06/08 05:38:17;;;;;;;18.40;16.48;;;17.50;1.00;;;;;;5030805;28;20379;-82
2021/06/08 05:40:44;;;;;;;18.00;15.73;;;17.60;1.00;;;;;;5027825;28;20445;-83
2021/06/08 05:43:11;;;;;;;20.85;16.58;;;17.80;1.00;;;;;;5031374;28;20121;-82
2021/06/08 05:45:37;;;;;;;18.88;16.85;;;18.00;1.00;;;;;;5031091;28;20032;-82
2021/06/08 05:48:03;;;;;;;20.77;17.10;;;18.30;1.00;;;;;;5030924;28;20060;-80
2021/06/08 05:50:29;;;;;;;18.15;16.25;;;17.60;1.00;;;;;;5030314;28;20030;-81
2021/06/08 05:52:55;;;;;;;21.83;17.42;;;17.60;1.00;;;;;;5030411;28;20034;-81
2021/06/08 05:55:26;;;;;;;21.38;17.23;;;17.60;1.00;;;;;;5030647;28;20112;-81
2021/06/08 05:57:55;;;;;;;20.02;17.48;;;17.60;1.00;;;;;;5030240;28;20068;-81
2021/06/08 06:00:22;;;;;;;18.55;16.20;;;17.70;1.00;;;;;;5030619;28;20093;-81
2021/06/08 06:02:49;;;;;;;20.40;16.98;;;17.70;1.00;;;;;;5030930;28;20096;-81
2021/06/08 06:05:15;;;;;;;18.05;15.77;;;17.70;1.00;;;;;;5030628;28;20056;-81
2021/06/08 06:07:42;;;;;;;19.63;16.50;;;17.70;1.00;;;;;;5030581;28;20531;-81
2021/06/08 06:10:09;;;;;;;20.02;15.85;;;17.80;1.00;;;;;;5029427;28;20030;-81
2021/06/08 06:12:37;;;;;;;20.60;16.60;;;17.90;1.00;;;;;;5030290;28;20036;-81
2021/06/08 06:15:05;;;;;;;21.65;16.45;;;17.80;1.00;;;;;;5030284;28;20478;-81
2021/06/08 06:17:36;;;;;;;20.65;16.60;;;17.80;1.00;;;;;;5012348;28;20021;-81
2021/06/08 06:20:09;;;;;;;20.45;17.10;;;17.60;1.00;;;;;;5030553;28;20022;-81
2021/06/08 06:22:36;;;;;;;19.75;17.58;;;17.60;1.00;;;;;;5009159;28;20045;-81
2021/06/08 06:25:10;;;;;;;19.00;16.33;;;17.80;1.00;;;;;;5032735;28;20068;-80
2021/06/08 06:27:41;;;;;;;19.88;16.90;;;18.00;1.00;;;;;;5033980;28;20034;-81
2021/06/08 06:30:10;;;;;;;22.02;18.38;;;18.20;1.00;;;;;;5033926;28;20041;-81
2021/06/08 06:32:36;;;;;;;19.85;17.10;;;18.40;1.00;;;;;;5034364;28;20025;-81
2021/06/08 06:35:07;;;;;;;22.25;18.58;;;19.00;1.00;;;;;;5034387;28;20025;-81
2021/06/08 06:37:34;;;;;;;21.05;17.83;;;18.80;1.00;;;;;;5030494;28;20108;-81
2021/06/08 06:40:01;;;;;;;21.92;17.45;;;18.90;1.00;;;;;;5033075;28;20045;-81
2021/06/08 06:42:32;;;;;;;19.92;17.85;;;18.80;1.00;;;;;;5033904;28;20021;-81
2021/06/08 06:44:59;;;;;;;21.38;17.33;;;18.80;1.00;;;;;;5033758;28;20041;-81
2021/06/08 06:47:25;;;;;;;19.00;16.83;;;18.80;1.00;;;;;;5034178;28;20014;-81
2021/06/08 06:49:51;;;;;;;20.30;18.10;;;18.50;1.00;;;;;;5034433;28;20111;-82
2021/06/08 06:52:17;;;;;;;19.25;17.05;;;18.50;1.00;;;;;;5034424;28;20030;-81
2021/06/08 06:54:44;;;;;;;18.75;16.77;;;18.30;1.00;;;;;;5033167;28;20443;-81
2021/06/08 06:57:11;;;;;;;22.67;17.60;;;18.40;1.00;;;;;;5033645;28;20030;-81
2021/06/08 06:59:38;;;;;;;19.83;17.75;;;18.60;1.00;;;;;;5034168;28;20033;-82
2021/06/08 07:02:06;;;;;;;18.67;16.77;;;18.60;1.00;;;;;;5017878;28;20025;-81
2021/06/08 07:04:33;;;;;;;19.52;17.48;;;18.80;1.00;;;;;;5034536;28;20034;-81
2021/06/08 07:06:59;;;;;;;22.80;17.15;;;18.90;1.00;;;;;;5032882;28;20032;-81
2021/06/08 07:09:26;;;;;;;18.50;16.52;;;18.70;1.00;;;;;;5033303;28;20109;-82
2021/06/08 07:11:53;;;;;;;20.75;16.83;;;18.90;1.00;;;;;;5033665;28;20021;-81
2021/06/08 07:14:22;;;;;;;17.17;15.30;;;18.90;1.00;;;;;;5033378;28;20033;-83
2021/06/08 07:16:50;;;;;;;20.77;16.27;;;19.10;1.00;;;;;;5034041;28;20537;-83
2021/06/08 07:19:17;;;;;;;17.00;15.10;;;19.20;1.00;;;;;;5033785;28;20485;-83
2021/06/08 07:21:44;;;;;;;16.63;14.93;;;19.20;1.00;;;;;;5032219;28;20446;-83
2021/06/08 07:24:11;;;;;;;17.52;15.25;;;19.20;1.00;;;;;;5032963;28;20131;-83
2021/06/08 07:26:38;;;;;;;16.98;14.45;;;19.30;1.00;;;;;;5033385;28;20098;-83
2021/06/08 07:29:07;;;;;;;16.55;14.75;;;19.70;1.00;;;;;;5031295;28;20045;-83
2021/06/08 07:31:48;;;;;;;16.08;14.23;;;20.00;1.00;;;;;;5029253;28;20052;-82
2021/06/08 07:34:28;;;;;;;16.67;14.55;;;19.90;1.00;;;;;;5033072;28;20635;-84
2021/06/08 07:36:55;;;;;;;18.55;14.50;;;20.10;1.00;;;;;;5032424;28;20026;-83
2021/06/08 07:39:34;;;;;;;15.63;14.02;;;20.30;1.00;;;;;;5032851;28;20155;-84
2021/06/08 07:42:08;;;;;;;17.10;13.77;;;20.50;1.00;;;;;;5031624;28;20034;-84
2021/06/08 07:45:00;;;;;;;16.00;14.40;;;20.50;1.00;;;;;;5032706;28;20114;-84
2021/06/08 07:47:27;;;;;;;15.43;13.77;;;20.10;1.00;;;;;;5019871;28;20033;-83
2021/06/08 07:49:57;;;;;;;14.63;13.10;;;20.10;1.00;;;;;;5032900;28;20494;-83
2021/06/08 07:52:24;;;;;;;15.57;13.88;;;20.00;1.00;;;;;;5033486;28;20104;-83
2021/06/08 07:54:50;;;;;;;14.82;13.15;;;20.30;1.00;;;;;;5032435;28;20029;-83
2021/06/08 07:57:18;;;;;;;15.73;14.05;;;20.00;1.00;;;;;;5010571;28;20405;-83
2021/06/08 07:59:44;;;;;;;16.58;14.73;;;19.80;1.00;;;;;;5032942;28;20478;-86
2021/06/08 08:02:11;;;;;;;15.32;13.73;;;19.70;1.00;;;;;;5033112;28;20052;-86
2021/06/08 08:04:48;;;;;;;15.38;13.77;;;19.70;1.00;;;;;;5014961;28;20033;-86
2021/06/08 08:07:15;;;;;;;15.55;13.52;;;19.70;1.00;;;;;;5032124;28;20037;-85
2021/06/08 08:09:40;;;;;;;15.15;13.25;;;19.80;1.00;;;;;;5032222;28;20052;-86
2021/06/08 08:12:07;;;;;;;14.93;13.32;;;20.10;1.00;;;;;;5010007;28;20093;-85
2021/06/08 08:14:32;;;;;;;18.63;14.23;;;20.20;1.00;;;;;;5033251;28;20390;-86
2021/06/08 08:17:00;;;;;;;14.68;13.07;;;20.30;1.00;;;;;;5032247;28;20021;-86
2021/06/08 08:19:26;;;;;;;15.07;13.57;;;20.50;1.00;;;;;;5014753;28;20030;-85
2021/06/08 08:21:51;;;;;;;14.23;12.82;;;21.10;1.00;;;;;;5032045;28;20046;-85
2021/06/08 08:24:18;;;;;;;14.32;12.93;;;21.30;1.00;;;;;;5032001;28;20025;-86
2021/06/08 08:26:44;;;;;;;13.60;12.10;;;21.90;1.00;;;;;;5032159;28;20032;-86
2021/06/08 08:29:10;;;;;;;13.40;12.00;;;22.30;1.00;;;;;;5032553;28;20044;-85
2021/06/08 08:31:37;;;;;;;11.77;10.57;;;22.60;1.00;;;;;;5032442;28;20483;-86
2021/06/08 08:34:04;;;;;;;12.90;11.20;;;22.70;1.00;;;;;;5031920;28;20033;-86
2021/06/08 08:36:34;;;;;;;12.70;11.32;;;22.60;1.00;;;;;;5031664;28;20083;-86
2021/06/08 08:39:00;;;;;;;12.48;11.13;;;22.70;1.00;;;;;;5032166;28;20041;-86
2021/06/08 08:41:27;;;;;;;11.70;10.55;;;22.90;1.00;;;;;;5031809;28;20079;-85
2021/06/08 08:43:54;;;;;;;11.52;10.32;;;23.10;1.00;;;;;;5031919;28;20108;-86
2021/06/08 08:46:20;;;;;;;11.25;10.02;;;23.50;1.00;;;;;;5032266;28;20063;-86
2021/06/08 08:48:53;;;;;;;10.60;9.50;;;23.50;1.00;;;;;;5030481;28;20057;-85
2021/06/08 08:51:20;;;;;;;10.70;9.10;;;23.60;1.00;;;;;;5031812;28;20049;-84
2021/06/08 08:53:47;;;;;;;12.40;10.00;;;23.60;1.00;;;;;;5031634;28;20021;-87
2021/06/08 08:56:15;;;;;;;11.20;10.00;;;23.30;1.00;;;;;;5031666;28;20112;-87
2021/06/08 08:58:42;;;;;;;10.73;9.63;;;23.60;1.00;;;;;;5032227;28;20048;-87
2021/06/08 09:01:08;;;;;;;10.07;9.10;;;23.40;1.00;;;;;;5032161;28;20045;-87
2021/06/08 09:03:36;;;;;;;10.23;9.32;;;23.30;1.00;;;;;;5030943;28;20441;-87
2021/06/08 09:06:02;;;;;;;9.75;8.82;;;23.10;1.00;;;;;;5031183;28;20040;-87
2021/06/08 09:08:27;;;;;;;9.90;8.90;;;23.40;1.00;;;;;;5030875;28;20037;-88
2021/06/08 09:10:54;;;;;;;10.93;9.05;;;24.10;1.00;;;;;;5031008;28;20442;-87
2021/06/08 09:13:22;;;;;;;9.40;8.52;;;24.50;99.90;;;;;;5031628;28;20108;-88
2021/06/08 09:15:48;;;;;;;9.63;8.70;;;24.70;99.90;;;;;;5031168;28;20021;-88
2021/06/08 09:18:14;;;;;;;10.68;9.68;;;25.40;99.90;;;;;;5030505;28;20079;-87
2021/06/08 09:20:40;;;;;;;10.40;9.40;;;25.30;99.90;;;;;;5031548;28;20168;-89
2021/06/08 09:23:07;;;;;;;11.27;9.10;;;24.70;99.90;;;;;;5031948;28;20501;-88
2021/06/08 09:25:47;;;;;;;11.80;9.35;;;24.80;99.90;;;;;;5027448;28;20029;-90
2021/06/08 09:28:36;;;;;;;8.48;7.63;;;24.40;99.90;;;;;;5030049;28;20038;-89
2021/06/08 09:31:24;;;;;;;9.10;8.20;;;24.40;99.90;;;;;;5013063;28;20485;-91
2021/06/08 09:33:54;;;;;;;9.50;8.48;;;25.10;99.90;;;;;;5030742;28;20094;-90
2021/06/08 09:36:28;;;;;;;8.98;8.07;;;25.70;99.90;;;;;;5031334;28;20041;-91
2021/06/08 09:39:05;;;;;;;8.43;7.63;;;25.60;99.90;;;;;;5030956;28;20033;-91
2021/06/08 09:41:33;;;;;;;10.00;9.00;;;26.10;99.90;;;;;;5031080;28;20551;-90
2021/06/08 09:44:05;;;;;;;11.05;10.05;;;26.10;99.90;;;;;;5013267;28;20555;-90
2021/06/08 09:46:48;;;;;;;10.65;9.70;;;25.80;99.90;;;;;;5031360;28;20026;-90
2021/06/08 09:49:37;;;;;;;10.90;9.80;;;26.00;99.90;;;;;;5031124;28;20107;-86
2021/06/08 09:52:06;;;;;;;10.23;9.23;;;25.60;99.90;;;;;;5011988;28;20397;-87
2021/06/08 09:54:33;;;;;;;10.65;9.65;;;25.20;99.90;;;;;;5029596;28;20026;-88
2021/06/08 09:57:14;;;;;;;10.35;9.35;;;24.50;99.90;;;;;;5030658;28;20032;-88
2021/06/08 09:59:44;;;;;;;11.63;10.52;;;25.00;99.90;;;;;;5032872;28;20073;-88
2021/06/08 10:02:39;;;;;;;12.80;10.15;;;25.40;99.90;;;;;;5034501;28;20014;-88
2021/06/08 10:05:24;;;;;;;10.65;9.30;;;25.00;99.90;;;;;;5018924;28;20030;-89
2021/06/08 10:08:04;;;;;;;9.25;8.30;;;25.80;99.90;;;;;;5031611;28;20036;-88
2021/06/08 10:10:46;;;;;;;8.52;7.65;;;25.50;99.90;;;;;;5034549;28;20087;-87
2021/06/08 10:13:16;;;;;;;8.55;7.75;;;25.50;99.90;;;;;;5034836;28;20045;-89
2021/06/08 10:15:58;;;;;;;9.02;8.13;;;26.00;99.90;;;;;;5020344;28;20029;-86
2021/06/08 10:18:25;;;;;;;9.23;7.72;;;25.50;99.90;;;;;;5035274;28;20026;-89
2021/06/08 10:20:53;;;;;;;8.30;7.60;;;25.40;99.90;;;;;;5034634;28;20018;-89
2021/06/08 10:23:29;;;;;;;8.90;8.00;;;24.70;99.90;;;;;;5017162;28;20406;-89
2021/06/08 10:25:57;;;;;;;8.13;7.43;;;24.90;99.90;;;;;;5016476;28;20024;-89
2021/06/08 10:28:24;;;;;;;7.78;7.10;;;24.50;99.90;;;;;;5034667;28;20063;-88
2021/06/08 10:30:51;;;;;;;7.88;7.18;;;24.20;99.90;;;;;;5033991;28;20026;-89
2021/06/08 10:33:17;;;;;;;7.97;7.18;;;24.60;99.90;;;;;;5034157;28;20026;-89
2021/06/08 10:35:43;;;;;;;7.57;6.88;;;24.50;99.90;;;;;;5034241;28;20038;-88
2021/06/08 10:38:10;;;;;;;8.07;7.28;;;25.20;99.90;;;;;;5034578;28;20037;-90
2021/06/08 10:40:38;;;;;;;8.25;7.45;;;25.90;99.90;;;;;;5017321;28;20401;-89
2021/06/08 10:43:05;;;;;;;10.38;7.88;;;26.20;99.90;;;;;;5034379;28;20053;-90
2021/06/08 10:45:40;;;;;;;8.00;7.28;;;26.20;99.90;;;;;;5033759;28;20025;-88
2021/06/08 10:48:09;;;;;;;8.43;7.65;;;25.90;99.90;;;;;;5034486;28;20034;-90
2021/06/08 10:50:37;;;;;;;9.30;7.57;;;25.20;99.90;;;;;;5034363;28;20025;-87
2021/06/08 10:53:03;;;;;;;8.30;7.60;;;25.00;99.90;;;;;;5034697;28;20054;-88
2021/06/08 10:55:39;;;;;;;8.13;7.22;;;25.30;99.90;;;;;;5035258;28;20039;-85
2021/06/08 10:58:07;;;;;;;8.63;7.82;;;26.40;99.90;;;;;;5034200;28;20026;-87
2021/06/08 11:00:34;;;;;;;9.63;8.73;;;26.40;99.90;;;;;;5033281;28;20053;-86
2021/06/08 11:03:01;;;;;;;8.52;7.72;;;26.40;99.90;;;;;;5034016;28;20482;-86
2021/06/08 11:05:47;;;;;;;8.10;7.28;;;26.90;99.90;;;;;;5016199;28;20029;-86
2021/06/08 11:08:13;;;;;;;9.25;8.30;;;26.90;99.90;;;;;;5018533;28;20112;-87
2021/06/08 11:10:43;;;;;;;8.88;8.07;;;26.50;99.90;;;;;;5032411;28;20045;-86
2021/06/08 11:13:09;;;;;;;7.95;7.20;;;25.80;99.90;;;;;;5033814;28;20022;-86
2021/06/08 11:15:36;;;;;;;8.07;7.25;;;25.70;99.90;;;;;;5032965;28;20111;-86
2021/06/08 11:18:22;;;;;;;9.65;8.25;;;26.40;99.90;;;;;;5033289;28;20478;-87
2021/06/08 11:21:09;;;;;;;8.10;7.40;;;26.30;99.90;;;;;;5033040;28;20040;-87
2021/06/08 11:23:42;;;;;;;7.25;6.55;;;26.40;99.90;;;;;;5022960;28;20039;-87
2021/06/08 11:26:10;;;;;;;7.28;6.45;;;26.10;99.90;;;;;;5018271;28;20044;-87
2021/06/08 11:28:50;;;;;;;7.38;6.47;;;26.10;99.90;;;;;;5033459;28;20037;-87
2021/06/08 11:31:19;;;;;;;7.85;7.00;;;26.00;99.90;;;;;;5031909;28;20125;-87
2021/06/08 11:33:47;;;;;;;7.40;6.70;;;25.80;99.90;;;;;;5033185;28;20056;-87
2021/06/08 11:36:19;;;;;;;7.55;6.88;;;25.40;99.90;;;;;;5032962;28;20436;-86
2021/06/08 11:38:49;;;;;;;8.18;7.32;;;25.40;99.90;;;;;;5033127;28;20104;-86
2021/06/08 11:41:17;;;;;;;7.53;6.82;;;25.70;99.90;;;;;;5033751;28;20017;-86
2021/06/08 11:43:46;;;;;;;8.18;7.35;;;25.10;99.90;;;;;;5032856;28;20516;-86
2021/06/08 11:46:18;;;;;;;7.57;6.78;;;25.10;99.90;;;;;;5033287;28;20029;-88
2021/06/08 11:49:06;;;;;;;8.90;8.02;;;25.30;99.90;;;;;;5011862;28;20065;-86
2021/06/08 11:51:36;;;;;;;10.43;8.55;;;26.10;99.90;;;;;;5032490;28;20028;-87
2021/06/08 11:54:14;;;;;;;9.57;8.65;;;25.70;99.90;;;;;;5033087;28;20036;-87
2021/06/08 11:56:44;;;;;;;8.60;7.80;;;25.00;99.90;;;;;;5032555;28;20031;-87
2021/06/08 11:59:10;;;;;;;8.68;7.78;;;24.90;99.90;;;;;;5032825;28;20040;-87
2021/06/08 12:01:42;;;;;;;10.82;7.75;;;25.50;99.90;;;;;;5033364;28;20108;-87
2021/06/08 12:04:08;;;;;;;9.40;8.50;;;26.00;99.90;;;;;;5033164;28;20123;-86
2021/06/08 12:06:55;;;;;;;8.48;7.63;;;25.80;99.90;;;;;;5032482;28;20028;-87
2021/06/08 12:09:24;;;;;;;8.98;8.18;;;26.40;99.90;;;;;;5032647;28;20037;-87
2021/06/08 12:11:52;;;;;;;9.07;8.18;;;26.50;99.90;;;;;;5032011;28;20454;-87
2021/06/08 12:14:19;;;;;;;8.50;7.65;;;28.80;99.90;;;;;;5032459;28;20501;-87
2021/06/08 12:16:57;;;;;;;10.88;7.72;;;32.90;99.90;;;;;;5032446;28;20037;-87
2021/06/08 12:19:29;;;;;;;7.97;7.25;;;29.20;99.90;;;;;;5031977;28;20029;-87
2021/06/08 12:21:56;;;;;;;8.73;7.72;;;27.90;99.90;;;;;;5031823;28;20041;-86
2021/06/08 12:24:22;;;;;;;9.50;8.43;;;28.00;99.90;;;;;;5032601;28;20025;-87
2021/06/08 12:26:57;;;;;;;9.63;8.73;;;27.70;99.90;;;;;;5031801;28;20032;-87
2021/06/08 12:29:23;;;;;;;10.27;8.80;;;30.60;99.90;;;;;;5032022;28;20037;-87
2021/06/08 12:31:57;;;;;;;10.35;8.85;;;33.30;99.90;;;;;;5032377;28;20113;-87
2021/06/08 12:34:25;;;;;;;10.07;8.02;;;32.00;99.90;;;;;;5031277;28;20052;-87
2021/06/08 12:36:52;;;;;;;7.80;7.10;;;30.30;99.90;;;;;;5032346;28;20021;-87
2021/06/08 12:39:29;;;;;;;10.23;7.35;;;31.30;99.90;;;;;;5031711;28;20457;-87
2021/06/08 12:42:16;;;;;;;9.18;8.35;;;33.90;99.90;;;;;;5031389;28;20046;-87
2021/06/08 12:44:45;;;;;;;9.30;7.93;;;33.70;99.90;;;;;;5031906;28;20025;-87
2021/06/08 12:47:11;;;;;;;10.18;9.18;;;32.30;99.90;;;;;;5031834;28;20059;-87
2021/06/08 12:49:39;;;;;;;8.82;8.00;;;30.90;99.90;;;;;;5014287;28;20037;-87